Con. actuales
Mostly Clear
Conditions



PressiĆ³n:
1023.92 (hPa) - 30.24 (inHG)
Visibilidad:

10.0 (km) - 6.2 (miles)
Base de Nubes

Despejado (Mts) - Despejado (Feets)
   Temperatura
10  °C
Temperatura
7  °C
82  %
 Humedad
   Velocidad del Viento
5  km/h
3  kts
3  mph
1.3  m/s
   Wind Direction
N
45°
E
90°
135°
S
180°
225°
O
270°
315°
 180°

Con rumbo oeste
   Airport Data
SAEZ
Ministro Pistarini International Airport
Metar :SAEZ 142300Z 18003KT 170V230 CAVOK 10/07 Q1024 NOSIG
Mon 14th June 20:00 pm
   Raw Metar Info
Raw METAR is the most common format in the world for the transmission of observational weather data. It is highly standardized through the International Civil Aviation Organization (ICAO), which allows it to be understood throughout most of the world.
   API Info
Data Provided by
https://www.checkwx.com/weather/SAEZ

Aviation Weather providing METAR, TAF, AIRMET, SIGMET and OUTLOOK Weather Reports
   © Info
CSS/SVG/PHP scripts were developed by weather34.com for use in the weather34 template © 2015-2021

Guide Info provided by Metar-Wikipedia